sensor_id;sensor_type;location;lat;lon;timestamp;P1;durP1;ratioP1;P2;durP2;ratioP2
39356;SDS011;25077;50.302;18.996;2022-12-18T00:01:40;36.60;;;15.47;;
39356;SDS011;25077;50.302;18.996;2022-12-18T00:04:42;39.23;;;16.60;;
39356;SDS011;25077;50.302;18.996;2022-12-18T00:07:44;44.53;;;19.00;;
39356;SDS011;25077;50.302;18.996;2022-12-18T00:10:48;38.40;;;17.77;;
39356;SDS011;25077;50.302;18.996;2022-12-18T00:13:50;34.10;;;14.63;;
39356;SDS011;25077;50.302;18.996;2022-12-18T00:16:52;44.00;;;19.43;;
39356;SDS011;25077;50.302;18.996;2022-12-18T00:19:54;44.50;;;19.47;;
39356;SDS011;25077;50.302;18.996;2022-12-18T00:22:56;43.80;;;17.30;;
39356;SDS011;25077;50.302;18.996;2022-12-18T00:26:00;35.17;;;15.50;;
39356;SDS011;25077;50.302;18.996;2022-12-18T00:29:07;38.53;;;16.60;;
39356;SDS011;25077;50.302;18.996;2022-12-18T00:32:11;36.23;;;16.30;;
39356;SDS011;25077;50.302;18.996;2022-12-18T00:35:13;47.53;;;17.20;;
39356;SDS011;25077;50.302;18.996;2022-12-18T00:38:15;44.27;;;17.47;;
39356;SDS011;25077;50.302;18.996;2022-12-18T00:41:19;44.50;;;18.53;;
39356;SDS011;25077;50.302;18.996;2022-12-18T00:44:41;44.53;;;18.97;;
39356;SDS011;25077;50.302;18.996;2022-12-18T00:47:43;47.93;;;19.97;;
39356;SDS011;25077;50.302;18.996;2022-12-18T00:50:45;65.83;;;24.30;;
39356;SDS011;25077;50.302;18.996;2022-12-18T00:53:49;51.87;;;20.53;;
39356;SDS011;25077;50.302;18.996;2022-12-18T00:56:52;48.77;;;21.30;;
39356;SDS011;25077;50.302;18.996;2022-12-18T00:59:55;50.80;;;21.20;;
39356;SDS011;25077;50.302;18.996;2022-12-18T01:02:58;59.10;;;21.77;;
39356;SDS011;25077;50.302;18.996;2022-12-18T01:06:04;60.53;;;23.47;;
39356;SDS011;25077;50.302;18.996;2022-12-18T01:09:07;46.73;;;20.10;;
39356;SDS011;25077;50.302;18.996;2022-12-18T01:12:12;55.93;;;22.03;;
39356;SDS011;25077;50.302;18.996;2022-12-18T01:15:14;42.60;;;18.23;;
39356;SDS011;25077;50.302;18.996;2022-12-18T01:18:17;47.70;;;20.33;;
39356;SDS011;25077;50.302;18.996;2022-12-18T01:21:19;45.53;;;19.23;;
39356;SDS011;25077;50.302;18.996;2022-12-18T01:24:22;50.83;;;21.17;;
39356;SDS011;25077;50.302;18.996;2022-12-18T01:27:25;61.00;;;24.20;;
39356;SDS011;25077;50.302;18.996;2022-12-18T01:30:27;48.13;;;20.07;;
39356;SDS011;25077;50.302;18.996;2022-12-18T01:33:29;80.20;;;28.03;;
39356;SDS011;25077;50.302;18.996;2022-12-18T01:36:32;63.27;;;23.57;;
39356;SDS011;25077;50.302;18.996;2022-12-18T01:39:35;38.03;;;18.03;;
39356;SDS011;25077;50.302;18.996;2022-12-18T01:42:39;46.10;;;20.03;;
39356;SDS011;25077;50.302;18.996;2022-12-18T01:45:42;46.13;;;19.27;;
39356;SDS011;25077;50.302;18.996;2022-12-18T01:48:44;44.90;;;18.80;;
39356;SDS011;25077;50.302;18.996;2022-12-18T01:51:48;50.97;;;20.07;;
39356;SDS011;25077;50.302;18.996;2022-12-18T01:54:51;46.13;;;18.03;;
39356;SDS011;25077;50.302;18.996;2022-12-18T01:57:56;52.33;;;21.93;;
39356;SDS011;25077;50.302;18.996;2022-12-18T02:01:00;45.53;;;18.80;;
39356;SDS011;25077;50.302;18.996;2022-12-18T02:04:16;59.60;;;21.40;;
39356;SDS011;25077;50.302;18.996;2022-12-18T02:07:24;53.43;;;20.37;;
39356;SDS011;25077;50.302;18.996;2022-12-18T02:10:39;62.20;;;20.80;;
39356;SDS011;25077;50.302;18.996;2022-12-18T02:13:50;52.80;;;20.77;;
39356;SDS011;25077;50.302;18.996;2022-12-18T02:16:58;50.30;;;20.07;;
39356;SDS011;25077;50.302;18.996;2022-12-18T02:20:07;51.70;;;19.50;;
39356;SDS011;25077;50.302;18.996;2022-12-18T02:23:19;47.50;;;19.20;;
39356;SDS011;25077;50.302;18.996;2022-12-18T02:26:33;54.93;;;20.80;;
39356;SDS011;25077;50.302;18.996;2022-12-18T02:29:41;48.43;;;18.97;;
39356;SDS011;25077;50.302;18.996;2022-12-18T02:32:49;49.90;;;19.10;;
39356;SDS011;25077;50.302;18.996;2022-12-18T02:35:54;51.77;;;18.77;;
39356;SDS011;25077;50.302;18.996;2022-12-18T02:38:59;42.50;;;18.83;;
39356;SDS011;25077;50.302;18.996;2022-12-18T02:42:05;46.07;;;19.03;;
39356;SDS011;25077;50.302;18.996;2022-12-18T02:45:09;51.10;;;18.43;;
39356;SDS011;25077;50.302;18.996;2022-12-18T02:48:12;44.63;;;17.43;;
39356;SDS011;25077;50.302;18.996;2022-12-18T02:51:20;45.90;;;17.43;;
39356;SDS011;25077;50.302;18.996;2022-12-18T02:54:38;59.43;;;20.43;;
39356;SDS011;25077;50.302;18.996;2022-12-18T02:58:00;50.43;;;18.90;;
39356;SDS011;25077;50.302;18.996;2022-12-18T03:01:11;43.27;;;19.10;;
39356;SDS011;25077;50.302;18.996;2022-12-18T03:04:19;44.27;;;18.30;;
39356;SDS011;25077;50.302;18.996;2022-12-18T03:07:27;49.27;;;19.23;;
39356;SDS011;25077;50.302;18.996;2022-12-18T03:10:42;54.90;;;20.93;;
39356;SDS011;25077;50.302;18.996;2022-12-18T03:13:52;56.80;;;19.57;;
39356;SDS011;25077;50.302;18.996;2022-12-18T03:17:00;42.83;;;17.90;;
39356;SDS011;25077;50.302;18.996;2022-12-18T03:20:05;43.53;;;17.37;;
39356;SDS011;25077;50.302;18.996;2022-12-18T03:23:12;44.13;;;18.13;;
39356;SDS011;25077;50.302;18.996;2022-12-18T03:26:21;47.47;;;19.80;;
39356;SDS011;25077;50.302;18.996;2022-12-18T03:29:32;46.17;;;18.20;;
39356;SDS011;25077;50.302;18.996;2022-12-18T03:32:39;42.77;;;17.83;;
39356;SDS011;25077;50.302;18.996;2022-12-18T03:35:47;44.47;;;18.93;;
39356;SDS011;25077;50.302;18.996;2022-12-18T03:38:52;41.33;;;17.50;;
39356;SDS011;25077;50.302;18.996;2022-12-18T03:41:57;45.90;;;18.30;;
39356;SDS011;25077;50.302;18.996;2022-12-18T03:45:20;44.37;;;18.20;;
39356;SDS011;25077;50.302;18.996;2022-12-18T03:48:28;40.57;;;17.77;;
39356;SDS011;25077;50.302;18.996;2022-12-18T03:51:38;44.00;;;17.50;;
39356;SDS011;25077;50.302;18.996;2022-12-18T03:54:45;45.70;;;17.90;;
39356;SDS011;25077;50.302;18.996;2022-12-18T03:57:51;43.23;;;17.60;;
39356;SDS011;25077;50.302;18.996;2022-12-18T04:00:56;38.70;;;17.73;;
39356;SDS011;25077;50.302;18.996;2022-12-18T04:04:03;44.20;;;18.83;;
39356;SDS011;25077;50.302;18.996;2022-12-18T04:07:11;42.10;;;16.83;;
39356;SDS011;25077;50.302;18.996;2022-12-18T04:10:18;45.23;;;18.07;;
39356;SDS011;25077;50.302;18.996;2022-12-18T04:13:21;44.30;;;17.50;;
39356;SDS011;25077;50.302;18.996;2022-12-18T04:16:25;38.43;;;16.57;;
39356;SDS011;25077;50.302;18.996;2022-12-18T04:19:34;36.60;;;15.53;;
39356;SDS011;25077;50.302;18.996;2022-12-18T04:22:37;33.63;;;15.93;;
39356;SDS011;25077;50.302;18.996;2022-12-18T04:25:39;36.93;;;15.17;;
39356;SDS011;25077;50.302;18.996;2022-12-18T04:28:45;37.57;;;15.70;;
39356;SDS011;25077;50.302;18.996;2022-12-18T04:31:51;33.80;;;14.53;;
39356;SDS011;25077;50.302;18.996;2022-12-18T04:34:54;37.33;;;15.57;;
39356;SDS011;25077;50.302;18.996;2022-12-18T04:37:57;39.00;;;15.83;;
39356;SDS011;25077;50.302;18.996;2022-12-18T04:40:59;44.47;;;16.93;;
39356;SDS011;25077;50.302;18.996;2022-12-18T04:44:01;41.90;;;17.63;;
39356;SDS011;25077;50.302;18.996;2022-12-18T04:47:05;47.30;;;16.77;;
39356;SDS011;25077;50.302;18.996;2022-12-18T04:50:08;49.10;;;18.73;;
39356;SDS011;25077;50.302;18.996;2022-12-18T04:53:10;52.13;;;19.43;;
39356;SDS011;25077;50.302;18.996;2022-12-18T04:56:13;49.10;;;19.97;;
39356;SDS011;25077;50.302;18.996;2022-12-18T04:59:16;48.37;;;17.50;;
39356;SDS011;25077;50.302;18.996;2022-12-18T05:02:19;49.67;;;17.70;;
39356;SDS011;25077;50.302;18.996;2022-12-18T05:05:21;48.77;;;18.53;;
39356;SDS011;25077;50.302;18.996;2022-12-18T05:08:23;46.33;;;18.30;;
39356;SDS011;25077;50.302;18.996;2022-12-18T05:11:25;51.17;;;18.10;;
39356;SDS011;25077;50.302;18.996;2022-12-18T05:14:28;41.80;;;17.27;;
39356;SDS011;25077;50.302;18.996;2022-12-18T05:17:32;44.03;;;17.30;;
39356;SDS011;25077;50.302;18.996;2022-12-18T05:20:34;47.67;;;19.23;;
39356;SDS011;25077;50.302;18.996;2022-12-18T05:23:37;45.43;;;18.73;;
39356;SDS011;25077;50.302;18.996;2022-12-18T05:26:39;45.00;;;19.20;;
39356;SDS011;25077;50.302;18.996;2022-12-18T05:29:41;41.27;;;17.97;;
39356;SDS011;25077;50.302;18.996;2022-12-18T05:32:44;41.03;;;18.40;;
39356;SDS011;25077;50.302;18.996;2022-12-18T05:35:49;44.17;;;17.67;;
39356;SDS011;25077;50.302;18.996;2022-12-18T05:38:52;43.20;;;18.17;;
39356;SDS011;25077;50.302;18.996;2022-12-18T05:41:54;40.73;;;17.47;;
39356;SDS011;25077;50.302;18.996;2022-12-18T05:44:56;43.77;;;18.30;;
39356;SDS011;25077;50.302;18.996;2022-12-18T05:47:59;45.10;;;18.33;;
39356;SDS011;25077;50.302;18.996;2022-12-18T05:51:05;43.77;;;17.90;;
39356;SDS011;25077;50.302;18.996;2022-12-18T05:54:08;47.43;;;18.67;;
39356;SDS011;25077;50.302;18.996;2022-12-18T05:57:11;40.90;;;17.17;;
39356;SDS011;25077;50.302;18.996;2022-12-18T06:00:14;38.83;;;17.57;;
39356;SDS011;25077;50.302;18.996;2022-12-18T06:03:18;40.13;;;17.23;;
39356;SDS011;25077;50.302;18.996;2022-12-18T06:06:21;35.77;;;15.77;;
39356;SDS011;25077;50.302;18.996;2022-12-18T06:09:25;40.93;;;17.40;;
39356;SDS011;25077;50.302;18.996;2022-12-18T06:12:27;40.73;;;17.07;;
39356;SDS011;25077;50.302;18.996;2022-12-18T06:15:29;46.93;;;17.97;;
39356;SDS011;25077;50.302;18.996;2022-12-18T06:18:33;37.13;;;16.73;;
39356;SDS011;25077;50.302;18.996;2022-12-18T06:21:35;46.53;;;18.13;;
39356;SDS011;25077;50.302;18.996;2022-12-18T06:24:38;42.67;;;17.03;;
39356;SDS011;25077;50.302;18.996;2022-12-18T06:27:40;40.53;;;16.87;;
39356;SDS011;25077;50.302;18.996;2022-12-18T06:30:43;47.23;;;18.33;;
39356;SDS011;25077;50.302;18.996;2022-12-18T06:33:46;43.47;;;19.60;;
39356;SDS011;25077;50.302;18.996;2022-12-18T06:36:48;44.97;;;18.93;;
39356;SDS011;25077;50.302;18.996;2022-12-18T06:39:50;46.03;;;19.47;;
39356;SDS011;25077;50.302;18.996;2022-12-18T06:42:52;50.00;;;20.53;;
39356;SDS011;25077;50.302;18.996;2022-12-18T06:45:57;47.73;;;20.77;;
39356;SDS011;25077;50.302;18.996;2022-12-18T06:49:02;43.37;;;18.93;;
39356;SDS011;25077;50.302;18.996;2022-12-18T06:52:04;46.33;;;21.23;;
39356;SDS011;25077;50.302;18.996;2022-12-18T06:55:06;46.33;;;20.60;;
39356;SDS011;25077;50.302;18.996;2022-12-18T06:58:10;49.90;;;21.27;;
39356;SDS011;25077;50.302;18.996;2022-12-18T07:01:13;55.40;;;22.43;;
39356;SDS011;25077;50.302;18.996;2022-12-18T07:04:16;57.00;;;23.70;;
39356;SDS011;25077;50.302;18.996;2022-12-18T07:07:19;60.43;;;23.93;;
39356;SDS011;25077;50.302;18.996;2022-12-18T07:10:21;59.23;;;24.73;;
39356;SDS011;25077;50.302;18.996;2022-12-18T07:13:24;54.27;;;22.97;;
39356;SDS011;25077;50.302;18.996;2022-12-18T07:16:27;54.87;;;23.93;;
39356;SDS011;25077;50.302;18.996;2022-12-18T07:19:31;56.10;;;23.20;;
39356;SDS011;25077;50.302;18.996;2022-12-18T07:22:33;55.37;;;23.40;;
39356;SDS011;25077;50.302;18.996;2022-12-18T07:25:35;61.53;;;24.40;;
39356;SDS011;25077;50.302;18.996;2022-12-18T07:28:38;62.20;;;25.17;;
39356;SDS011;25077;50.302;18.996;2022-12-18T07:31:41;55.27;;;24.10;;
39356;SDS011;25077;50.302;18.996;2022-12-18T07:34:46;65.30;;;26.50;;
39356;SDS011;25077;50.302;18.996;2022-12-18T07:37:48;65.90;;;27.17;;
39356;SDS011;25077;50.302;18.996;2022-12-18T07:40:50;65.20;;;26.40;;
39356;SDS011;25077;50.302;18.996;2022-12-18T07:43:52;70.47;;;28.33;;
39356;SDS011;25077;50.302;18.996;2022-12-18T07:46:54;65.43;;;26.43;;
39356;SDS011;25077;50.302;18.996;2022-12-18T07:49:58;66.77;;;28.03;;
39356;SDS011;25077;50.302;18.996;2022-12-18T07:53:00;71.20;;;28.87;;
39356;SDS011;25077;50.302;18.996;2022-12-18T07:56:05;79.27;;;29.93;;
39356;SDS011;25077;50.302;18.996;2022-12-18T07:59:08;78.80;;;30.67;;
39356;SDS011;25077;50.302;18.996;2022-12-18T08:02:10;80.47;;;31.70;;
39356;SDS011;25077;50.302;18.996;2022-12-18T08:05:14;85.53;;;32.37;;
39356;SDS011;25077;50.302;18.996;2022-12-18T08:08:16;81.43;;;34.67;;
39356;SDS011;25077;50.302;18.996;2022-12-18T08:11:18;85.27;;;32.40;;
39356;SDS011;25077;50.302;18.996;2022-12-18T08:14:20;80.77;;;33.70;;
39356;SDS011;25077;50.302;18.996;2022-12-18T08:17:23;81.57;;;32.23;;
39356;SDS011;25077;50.302;18.996;2022-12-18T08:20:26;77.17;;;31.70;;
39356;SDS011;25077;50.302;18.996;2022-12-18T08:23:28;78.53;;;30.23;;
39356;SDS011;25077;50.302;18.996;2022-12-18T08:26:30;77.37;;;30.57;;
39356;SDS011;25077;50.302;18.996;2022-12-18T08:29:32;82.13;;;32.10;;
39356;SDS011;25077;50.302;18.996;2022-12-18T08:32:35;70.47;;;30.37;;
39356;SDS011;25077;50.302;18.996;2022-12-18T08:35:38;73.27;;;29.47;;
39356;SDS011;25077;50.302;18.996;2022-12-18T08:38:40;64.97;;;27.67;;
39356;SDS011;25077;50.302;18.996;2022-12-18T08:41:43;58.90;;;24.77;;
39356;SDS011;25077;50.302;18.996;2022-12-18T08:45:06;60.40;;;24.70;;
39356;SDS011;25077;50.302;18.996;2022-12-18T08:48:07;65.80;;;27.60;;
39356;SDS011;25077;50.302;18.996;2022-12-18T08:51:11;68.80;;;27.37;;
39356;SDS011;25077;50.302;18.996;2022-12-18T08:54:13;71.53;;;29.97;;
39356;SDS011;25077;50.302;18.996;2022-12-18T08:57:15;65.53;;;28.37;;
39356;SDS011;25077;50.302;18.996;2022-12-18T09:00:18;72.60;;;29.17;;
39356;SDS011;25077;50.302;18.996;2022-12-18T09:03:20;77.47;;;30.60;;
39356;SDS011;25077;50.302;18.996;2022-12-18T09:06:25;62.77;;;29.40;;
39356;SDS011;25077;50.302;18.996;2022-12-18T09:09:27;69.73;;;28.13;;
39356;SDS011;25077;50.302;18.996;2022-12-18T09:12:29;77.50;;;31.73;;
39356;SDS011;25077;50.302;18.996;2022-12-18T09:15:32;63.73;;;28.97;;
39356;SDS011;25077;50.302;18.996;2022-12-18T09:18:34;73.87;;;31.20;;
39356;SDS011;25077;50.302;18.996;2022-12-18T09:21:38;72.73;;;30.07;;
39356;SDS011;25077;50.302;18.996;2022-12-18T09:24:40;69.53;;;29.63;;
39356;SDS011;25077;50.302;18.996;2022-12-18T09:27:42;70.27;;;29.33;;
39356;SDS011;25077;50.302;18.996;2022-12-18T09:30:45;67.60;;;28.57;;
39356;SDS011;25077;50.302;18.996;2022-12-18T09:33:49;68.37;;;28.80;;
39356;SDS011;25077;50.302;18.996;2022-12-18T09:36:52;68.60;;;28.83;;
39356;SDS011;25077;50.302;18.996;2022-12-18T09:39:54;69.70;;;29.30;;
39356;SDS011;25077;50.302;18.996;2022-12-18T09:42:57;66.40;;;29.33;;
39356;SDS011;25077;50.302;18.996;2022-12-18T09:46:03;66.37;;;30.17;;
39356;SDS011;25077;50.302;18.996;2022-12-18T09:49:10;76.00;;;27.87;;
39356;SDS011;25077;50.302;18.996;2022-12-18T09:52:17;59.80;;;25.60;;
39356;SDS011;25077;50.302;18.996;2022-12-18T09:55:24;56.10;;;25.17;;
39356;SDS011;25077;50.302;18.996;2022-12-18T09:58:31;54.70;;;24.93;;
39356;SDS011;25077;50.302;18.996;2022-12-18T10:01:37;57.50;;;25.53;;
39356;SDS011;25077;50.302;18.996;2022-12-18T10:04:39;63.00;;;25.87;;
39356;SDS011;25077;50.302;18.996;2022-12-18T10:07:49;65.07;;;28.37;;
39356;SDS011;25077;50.302;18.996;2022-12-18T10:10:57;62.77;;;26.43;;
39356;SDS011;25077;50.302;18.996;2022-12-18T10:14:05;57.30;;;24.87;;
39356;SDS011;25077;50.302;18.996;2022-12-18T10:17:14;63.03;;;26.07;;
39356;SDS011;25077;50.302;18.996;2022-12-18T10:20:27;61.83;;;26.17;;
39356;SDS011;25077;50.302;18.996;2022-12-18T10:23:41;61.20;;;26.80;;
39356;SDS011;25077;50.302;18.996;2022-12-18T10:26:50;57.83;;;25.00;;
39356;SDS011;25077;50.302;18.996;2022-12-18T10:29:54;49.97;;;22.73;;
39356;SDS011;25077;50.302;18.996;2022-12-18T10:33:00;56.20;;;24.10;;
39356;SDS011;25077;50.302;18.996;2022-12-18T10:36:03;51.63;;;22.70;;
39356;SDS011;25077;50.302;18.996;2022-12-18T10:39:17;54.27;;;23.40;;
39356;SDS011;25077;50.302;18.996;2022-12-18T10:42:22;53.73;;;24.17;;
39356;SDS011;25077;50.302;18.996;2022-12-18T10:45:24;56.70;;;24.67;;
39356;SDS011;25077;50.302;18.996;2022-12-18T10:48:26;48.17;;;24.27;;
39356;SDS011;25077;50.302;18.996;2022-12-18T10:51:29;56.63;;;25.13;;
39356;SDS011;25077;50.302;18.996;2022-12-18T10:54:36;49.03;;;23.70;;
39356;SDS011;25077;50.302;18.996;2022-12-18T10:57:39;62.23;;;24.70;;
39356;SDS011;25077;50.302;18.996;2022-12-18T11:00:42;66.53;;;30.60;;
39356;SDS011;25077;50.302;18.996;2022-12-18T11:03:45;44.10;;;20.83;;
39356;SDS011;25077;50.302;18.996;2022-12-18T11:07:00;42.07;;;20.63;;
39356;SDS011;25077;50.302;18.996;2022-12-18T11:10:05;48.93;;;23.47;;
39356;SDS011;25077;50.302;18.996;2022-12-18T11:13:17;53.77;;;24.33;;
39356;SDS011;25077;50.302;18.996;2022-12-18T11:16:23;52.40;;;23.33;;
39356;SDS011;25077;50.302;18.996;2022-12-18T11:19:32;52.10;;;24.30;;
39356;SDS011;25077;50.302;18.996;2022-12-18T11:22:36;54.67;;;25.00;;
39356;SDS011;25077;50.302;18.996;2022-12-18T11:25:41;50.13;;;24.33;;
39356;SDS011;25077;50.302;18.996;2022-12-18T11:29:07;47.83;;;24.23;;
39356;SDS011;25077;50.302;18.996;2022-12-18T11:35:44;45.20;;;20.70;;
39356;SDS011;25077;50.302;18.996;2022-12-18T11:38:51;47.10;;;21.50;;
39356;SDS011;25077;50.302;18.996;2022-12-18T11:41:59;47.20;;;21.83;;
39356;SDS011;25077;50.302;18.996;2022-12-18T11:45:20;48.17;;;21.13;;
39356;SDS011;25077;50.302;18.996;2022-12-18T11:48:30;36.47;;;18.60;;
39356;SDS011;25077;50.302;18.996;2022-12-18T11:51:37;37.63;;;19.30;;
39356;SDS011;25077;50.302;18.996;2022-12-18T11:54:45;44.10;;;20.60;;
39356;SDS011;25077;50.302;18.996;2022-12-18T11:57:51;42.17;;;21.13;;
39356;SDS011;25077;50.302;18.996;2022-12-18T12:01:00;41.00;;;20.37;;
39356;SDS011;25077;50.302;18.996;2022-12-18T12:04:15;40.70;;;20.60;;
39356;SDS011;25077;50.302;18.996;2022-12-18T12:07:36;40.83;;;20.40;;
39356;SDS011;25077;50.302;18.996;2022-12-18T12:10:47;44.03;;;20.33;;
39356;SDS011;25077;50.302;18.996;2022-12-18T12:14:05;44.27;;;21.70;;
39356;SDS011;25077;50.302;18.996;2022-12-18T12:17:19;45.27;;;21.50;;
39356;SDS011;25077;50.302;18.996;2022-12-18T12:20:31;52.00;;;23.67;;
39356;SDS011;25077;50.302;18.996;2022-12-18T12:23:43;50.70;;;22.33;;
39356;SDS011;25077;50.302;18.996;2022-12-18T12:26:56;52.60;;;23.80;;
39356;SDS011;25077;50.302;18.996;2022-12-18T12:30:06;46.43;;;22.80;;
39356;SDS011;25077;50.302;18.996;2022-12-18T12:33:14;50.10;;;23.07;;
39356;SDS011;25077;50.302;18.996;2022-12-18T12:36:29;46.47;;;22.80;;
39356;SDS011;25077;50.302;18.996;2022-12-18T12:39:40;43.07;;;23.80;;
39356;SDS011;25077;50.302;18.996;2022-12-18T12:42:47;51.27;;;24.17;;
39356;SDS011;25077;50.302;18.996;2022-12-18T12:46:16;46.17;;;23.27;;
39356;SDS011;25077;50.302;18.996;2022-12-18T12:49:20;44.60;;;24.37;;
39356;SDS011;25077;50.302;18.996;2022-12-18T12:52:28;47.47;;;25.30;;
39356;SDS011;25077;50.302;18.996;2022-12-18T12:55:33;50.13;;;26.13;;
39356;SDS011;25077;50.302;18.996;2022-12-18T12:58:37;48.83;;;26.23;;
39356;SDS011;25077;50.302;18.996;2022-12-18T13:01:49;50.93;;;26.90;;
39356;SDS011;25077;50.302;18.996;2022-12-18T13:05:00;52.00;;;29.07;;
39356;SDS011;25077;50.302;18.996;2022-12-18T13:08:08;54.23;;;29.50;;
39356;SDS011;25077;50.302;18.996;2022-12-18T13:11:15;57.27;;;30.30;;
39356;SDS011;25077;50.302;18.996;2022-12-18T13:15:03;54.30;;;30.03;;
39356;SDS011;25077;50.302;18.996;2022-12-18T13:18:17;55.67;;;30.47;;
39356;SDS011;25077;50.302;18.996;2022-12-18T13:21:23;56.87;;;29.33;;
39356;SDS011;25077;50.302;18.996;2022-12-18T13:24:30;56.63;;;30.87;;
39356;SDS011;25077;50.302;18.996;2022-12-18T13:27:45;57.23;;;31.43;;
39356;SDS011;25077;50.302;18.996;2022-12-18T13:30:59;58.80;;;29.77;;
39356;SDS011;25077;50.302;18.996;2022-12-18T13:34:14;55.00;;;30.50;;
39356;SDS011;25077;50.302;18.996;2022-12-18T13:40:54;57.40;;;30.53;;
39356;SDS011;25077;50.302;18.996;2022-12-18T13:44:09;61.63;;;30.13;;
39356;SDS011;25077;50.302;18.996;2022-12-18T13:47:24;61.23;;;32.07;;
39356;SDS011;25077;50.302;18.996;2022-12-18T13:50:31;60.20;;;32.10;;
39356;SDS011;25077;50.302;18.996;2022-12-18T13:53:36;62.43;;;32.27;;
39356;SDS011;25077;50.302;18.996;2022-12-18T13:56:44;64.63;;;34.10;;
39356;SDS011;25077;50.302;18.996;2022-12-18T13:59:48;67.17;;;33.67;;
39356;SDS011;25077;50.302;18.996;2022-12-18T14:02:51;61.10;;;31.03;;
39356;SDS011;25077;50.302;18.996;2022-12-18T14:05:59;58.83;;;30.03;;
39356;SDS011;25077;50.302;18.996;2022-12-18T14:09:10;59.43;;;30.10;;
39356;SDS011;25077;50.302;18.996;2022-12-18T14:12:17;58.83;;;30.30;;
39356;SDS011;25077;50.302;18.996;2022-12-18T14:15:40;66.67;;;31.10;;
39356;SDS011;25077;50.302;18.996;2022-12-18T14:18:44;67.63;;;33.23;;
39356;SDS011;25077;50.302;18.996;2022-12-18T14:21:50;85.70;;;36.57;;
39356;SDS011;25077;50.302;18.996;2022-12-18T14:25:05;75.60;;;34.93;;
39356;SDS011;25077;50.302;18.996;2022-12-18T14:28:15;87.53;;;37.80;;
39356;SDS011;25077;50.302;18.996;2022-12-18T14:31:18;89.17;;;38.13;;
39356;SDS011;25077;50.302;18.996;2022-12-18T14:34:22;89.10;;;41.37;;
39356;SDS011;25077;50.302;18.996;2022-12-18T14:37:29;85.13;;;39.00;;
39356;SDS011;25077;50.302;18.996;2022-12-18T14:40:31;85.80;;;38.90;;
39356;SDS011;25077;50.302;18.996;2022-12-18T14:43:34;87.67;;;40.70;;
39356;SDS011;25077;50.302;18.996;2022-12-18T14:46:38;96.07;;;40.90;;
39356;SDS011;25077;50.302;18.996;2022-12-18T14:49:43;99.37;;;40.80;;
39356;SDS011;25077;50.302;18.996;2022-12-18T14:52:47;104.13;;;44.00;;
39356;SDS011;25077;50.302;18.996;2022-12-18T14:55:49;105.63;;;44.73;;
39356;SDS011;25077;50.302;18.996;2022-12-18T14:58:53;99.83;;;43.60;;
39356;SDS011;25077;50.302;18.996;2022-12-18T15:01:58;99.87;;;43.07;;
39356;SDS011;25077;50.302;18.996;2022-12-18T15:05:05;99.87;;;42.33;;
39356;SDS011;25077;50.302;18.996;2022-12-18T15:08:30;87.33;;;38.03;;
39356;SDS011;25077;50.302;18.996;2022-12-18T15:11:44;78.10;;;35.43;;
39356;SDS011;25077;50.302;18.996;2022-12-18T15:14:47;74.97;;;33.13;;
39356;SDS011;25077;50.302;18.996;2022-12-18T15:17:56;78.57;;;33.53;;
39356;SDS011;25077;50.302;18.996;2022-12-18T15:20:59;75.60;;;30.47;;
39356;SDS011;25077;50.302;18.996;2022-12-18T15:24:15;82.37;;;30.97;;
39356;SDS011;25077;50.302;18.996;2022-12-18T15:27:23;68.53;;;29.53;;
39356;SDS011;25077;50.302;18.996;2022-12-18T15:30:29;63.73;;;28.73;;
39356;SDS011;25077;50.302;18.996;2022-12-18T15:33:33;66.67;;;28.33;;
39356;SDS011;25077;50.302;18.996;2022-12-18T15:36:36;68.87;;;28.27;;
39356;SDS011;25077;50.302;18.996;2022-12-18T15:39:40;73.87;;;30.77;;
39356;SDS011;25077;50.302;18.996;2022-12-18T15:42:42;75.80;;;30.93;;
39356;SDS011;25077;50.302;18.996;2022-12-18T15:46:03;84.63;;;33.97;;
39356;SDS011;25077;50.302;18.996;2022-12-18T15:49:07;82.73;;;32.90;;
39356;SDS011;25077;50.302;18.996;2022-12-18T15:52:09;83.07;;;33.57;;
39356;SDS011;25077;50.302;18.996;2022-12-18T15:55:17;90.77;;;37.80;;
39356;SDS011;25077;50.302;18.996;2022-12-18T15:58:38;98.50;;;41.17;;
39356;SDS011;25077;50.302;18.996;2022-12-18T16:01:41;103.20;;;42.13;;
39356;SDS011;25077;50.302;18.996;2022-12-18T16:04:45;98.90;;;41.43;;
39356;SDS011;25077;50.302;18.996;2022-12-18T16:07:47;91.53;;;38.70;;
39356;SDS011;25077;50.302;18.996;2022-12-18T16:10:51;88.93;;;36.80;;
39356;SDS011;25077;50.302;18.996;2022-12-18T16:13:53;84.77;;;35.23;;
39356;SDS011;25077;50.302;18.996;2022-12-18T16:16:55;79.80;;;36.53;;
39356;SDS011;25077;50.302;18.996;2022-12-18T16:19:59;85.70;;;34.80;;
39356;SDS011;25077;50.302;18.996;2022-12-18T16:23:01;72.07;;;31.70;;
39356;SDS011;25077;50.302;18.996;2022-12-18T16:26:05;71.00;;;29.70;;
39356;SDS011;25077;50.302;18.996;2022-12-18T16:29:07;71.60;;;30.50;;
39356;SDS011;25077;50.302;18.996;2022-12-18T16:32:10;72.17;;;30.53;;
39356;SDS011;25077;50.302;18.996;2022-12-18T16:35:14;72.67;;;30.50;;
39356;SDS011;25077;50.302;18.996;2022-12-18T16:38:18;72.07;;;31.40;;
39356;SDS011;25077;50.302;18.996;2022-12-18T16:41:21;71.77;;;30.53;;
39356;SDS011;25077;50.302;18.996;2022-12-18T16:44:32;77.43;;;31.60;;
39356;SDS011;25077;50.302;18.996;2022-12-18T16:47:35;76.53;;;31.90;;
39356;SDS011;25077;50.302;18.996;2022-12-18T16:50:37;82.27;;;31.50;;
39356;SDS011;25077;50.302;18.996;2022-12-18T16:53:39;85.73;;;32.83;;
39356;SDS011;25077;50.302;18.996;2022-12-18T16:56:44;78.63;;;32.80;;
39356;SDS011;25077;50.302;18.996;2022-12-18T16:59:49;90.03;;;33.43;;
39356;SDS011;25077;50.302;18.996;2022-12-18T17:02:51;86.23;;;34.60;;
39356;SDS011;25077;50.302;18.996;2022-12-18T17:05:54;89.50;;;34.80;;
39356;SDS011;25077;50.302;18.996;2022-12-18T17:08:56;81.80;;;33.33;;
39356;SDS011;25077;50.302;18.996;2022-12-18T17:12:01;81.33;;;33.70;;
39356;SDS011;25077;50.302;18.996;2022-12-18T17:15:04;78.23;;;31.03;;
39356;SDS011;25077;50.302;18.996;2022-12-18T17:18:07;75.07;;;28.63;;
39356;SDS011;25077;50.302;18.996;2022-12-18T17:21:09;68.90;;;28.67;;
39356;SDS011;25077;50.302;18.996;2022-12-18T17:24:13;69.43;;;28.87;;
39356;SDS011;25077;50.302;18.996;2022-12-18T17:27:18;76.57;;;31.10;;
39356;SDS011;25077;50.302;18.996;2022-12-18T17:30:20;71.30;;;30.07;;
39356;SDS011;25077;50.302;18.996;2022-12-18T17:33:22;78.30;;;30.23;;
39356;SDS011;25077;50.302;18.996;2022-12-18T17:36:25;70.90;;;28.07;;
39356;SDS011;25077;50.302;18.996;2022-12-18T17:39:28;69.40;;;29.53;;
39356;SDS011;25077;50.302;18.996;2022-12-18T17:42:32;74.77;;;30.97;;
39356;SDS011;25077;50.302;18.996;2022-12-18T17:45:35;75.33;;;28.73;;
39356;SDS011;25077;50.302;18.996;2022-12-18T17:48:38;70.03;;;28.80;;
39356;SDS011;25077;50.302;18.996;2022-12-18T17:51:41;81.40;;;31.70;;
39356;SDS011;25077;50.302;18.996;2022-12-18T17:54:43;81.00;;;31.93;;
39356;SDS011;25077;50.302;18.996;2022-12-18T17:57:46;78.77;;;31.47;;